createdAt,value
2022-10-02T00:02:10.704Z,3.90
2022-10-02T00:04:51.142Z,3.20
2022-10-02T00:07:24.489Z,3.60
2022-10-02T00:09:57.440Z,3.00
2022-10-02T00:12:28.838Z,4.70
2022-10-02T00:15:18.566Z,3.30
2022-10-02T00:17:48.370Z,3.80
2022-10-02T00:20:19.418Z,3.50
2022-10-02T00:23:01.448Z,4.80
2022-10-02T00:25:30.583Z,3.40
2022-10-02T00:28:06.306Z,3.00
2022-10-02T00:31:02.128Z,4.50
2022-10-02T00:34:01.970Z,3.40
2022-10-02T00:36:50.880Z,5.20
2022-10-02T00:39:45.485Z,7.90
2022-10-02T00:42:36.752Z,7.30
2022-10-02T00:45:28.005Z,4.20
2022-10-02T00:48:12.856Z,5.40
2022-10-02T00:51:02.799Z,5.10
2022-10-02T00:53:47.946Z,4.70
2022-10-02T00:56:28.364Z,3.80
2022-10-02T00:59:31.440Z,4.10
2022-10-02T01:02:13.683Z,3.50
2022-10-02T01:04:41.113Z,5.20
2022-10-02T01:07:12.236Z,5.00
2022-10-02T01:09:39.761Z,4.40
2022-10-02T01:12:06.970Z,3.30
2022-10-02T01:14:39.943Z,4.10
2022-10-02T01:17:26.473Z,5.00
2022-10-02T01:19:55.509Z,3.30
2022-10-02T01:22:25.325Z,3.40
2022-10-02T01:24:56.801Z,4.50
2022-10-02T01:27:25.310Z,3.00
2022-10-02T01:29:57.188Z,4.30
2022-10-02T01:32:28.763Z,2.30
2022-10-02T01:34:56.519Z,3.70
2022-10-02T01:37:28.842Z,2.40
2022-10-02T01:40:01.324Z,3.60
2022-10-02T01:42:29.180Z,2.20
2022-10-02T01:44:56.095Z,3.20
2022-10-02T01:47:32.653Z,3.20
2022-10-02T01:50:27.333Z,3.20
2022-10-02T01:53:26.520Z,2.60
2022-10-02T01:56:27.959Z,3.40
2022-10-02T01:59:04.721Z,2.20
2022-10-02T02:01:55.352Z,3.60
2022-10-02T02:04:33.571Z,4.20
2022-10-02T02:07:04.912Z,2.30
2022-10-02T02:09:45.052Z,3.00
2022-10-02T02:12:27.726Z,3.00
2022-10-02T02:15:04.014Z,2.40
2022-10-02T02:17:46.015Z,3.20
2022-10-02T02:20:22.592Z,2.60
2022-10-02T02:22:52.977Z,2.80
2022-10-02T02:25:24.829Z,3.90
2022-10-02T02:27:56.681Z,3.10
2022-10-02T02:30:24.793Z,1.60
2022-10-02T02:33:01.994Z,1.90
2022-10-02T02:35:37.462Z,2.10
2022-10-02T02:38:08.302Z,3.00
2022-10-02T02:40:41.632Z,3.20
2022-10-02T02:43:11.671Z,2.40
2022-10-02T02:45:47.577Z,2.40
2022-10-02T02:48:26.219Z,2.30
2022-10-02T02:50:59.639Z,4.70
2022-10-02T02:53:44.793Z,7.10
2022-10-02T02:56:16.488Z,3.10
2022-10-02T02:58:51.665Z,2.20
2022-10-02T03:01:18.637Z,2.40
2022-10-02T03:03:45.514Z,3.00
2022-10-02T03:06:15.181Z,4.60
2022-10-02T03:08:43.673Z,3.50
2022-10-02T03:11:16.560Z,2.70
2022-10-02T03:14:02.315Z,4.90
2022-10-02T03:16:32.006Z,4.00
2022-10-02T03:19:32.811Z,3.90
2022-10-02T03:22:30.872Z,3.10
2022-10-02T03:25:25.713Z,3.30
2022-10-02T03:28:43.490Z,4.90
2022-10-02T03:31:10.376Z,4.20
2022-10-02T03:33:38.936Z,3.50
2022-10-02T03:36:06.469Z,3.80
2022-10-02T03:38:33.974Z,2.50
2022-10-02T03:41:00.848Z,3.30
2022-10-02T03:43:29.601Z,3.20
2022-10-02T03:45:56.959Z,3.90
2022-10-02T03:48:23.819Z,2.40
2022-10-02T03:50:50.785Z,2.60
2022-10-02T03:53:24.879Z,2.40
2022-10-02T03:56:06.154Z,3.70
2022-10-02T03:58:34.461Z,2.90
2022-10-02T04:01:20.363Z,3.50
2022-10-02T04:03:55.341Z,4.70
2022-10-02T04:06:30.055Z,3.00
2022-10-02T04:09:14.557Z,3.20
2022-10-02T04:11:49.356Z,4.30
2022-10-02T04:14:54.312Z,4.90
2022-10-02T04:17:37.172Z,5.60
2022-10-02T04:20:31.213Z,6.70
2022-10-02T04:23:16.887Z,4.90
2022-10-02T04:25:49.225Z,4.30
2022-10-02T04:28:30.544Z,7.80
2022-10-02T04:30:57.564Z,6.30
2022-10-02T04:33:25.612Z,4.20
2022-10-02T04:36:21.626Z,5.40
2022-10-02T04:39:20.070Z,5.40
2022-10-02T04:41:59.938Z,4.60
2022-10-02T04:44:42.006Z,5.30
2022-10-02T04:47:34.434Z,5.00
2022-10-02T04:50:30.941Z,5.60
2022-10-02T04:53:22.062Z,5.00
2022-10-02T04:55:51.974Z,5.90
2022-10-02T04:58:21.609Z,4.90
2022-10-02T05:01:03.627Z,6.70
2022-10-02T05:04:04.178Z,5.70
2022-10-02T05:06:48.243Z,6.70
2022-10-02T05:09:41.916Z,6.70
2022-10-02T05:12:26.828Z,8.10
2022-10-02T05:15:35.785Z,7.60
2022-10-02T05:18:14.601Z,4.80
2022-10-02T05:20:56.210Z,6.40
2022-10-02T05:24:08.289Z,6.20
2022-10-02T05:26:50.914Z,6.60
2022-10-02T05:29:20.777Z,6.50
2022-10-02T05:32:15.059Z,8.00
2022-10-02T05:34:44.951Z,8.70
2022-10-02T05:37:57.739Z,7.90
2022-10-02T05:40:35.957Z,8.00
2022-10-02T05:43:11.268Z,6.80
2022-10-02T05:45:39.953Z,7.60
2022-10-02T05:48:39.240Z,7.60
2022-10-02T05:51:15.938Z,5.80
2022-10-02T05:53:45.955Z,7.30
2022-10-02T05:56:15.494Z,6.00
2022-10-02T05:58:57.973Z,5.90
2022-10-02T06:01:31.316Z,6.30
2022-10-02T06:04:05.941Z,9.80
2022-10-02T06:06:50.945Z,7.60
2022-10-02T06:09:44.843Z,5.70
2022-10-02T06:12:30.249Z,7.50
2022-10-02T06:15:22.353Z,4.80
2022-10-02T06:18:05.775Z,5.30
2022-10-02T06:20:46.002Z,4.50
2022-10-02T06:23:25.654Z,6.20
2022-10-02T06:25:58.918Z,5.40
2022-10-02T06:28:37.495Z,6.70
2022-10-02T06:31:17.814Z,6.90
2022-10-02T06:33:44.856Z,6.10
2022-10-02T06:36:47.778Z,6.70
2022-10-02T06:39:26.364Z,6.50
2022-10-02T06:42:11.945Z,7.90
2022-10-02T06:44:54.373Z,7.50
2022-10-02T06:47:53.750Z,6.10
2022-10-02T06:50:23.226Z,6.30
2022-10-02T06:52:52.783Z,7.60
2022-10-02T06:55:31.548Z,6.60
2022-10-02T06:58:29.584Z,6.90
2022-10-02T07:01:10.375Z,7.10
2022-10-02T07:03:56.941Z,7.10
2022-10-02T07:06:39.365Z,7.10
2022-10-02T07:09:18.913Z,5.50
2022-10-02T07:12:04.566Z,6.40
2022-10-02T07:15:01.190Z,7.80
2022-10-02T07:17:46.843Z,5.20
2022-10-02T07:20:31.639Z,4.60
2022-10-02T07:23:23.681Z,6.00
2022-10-02T07:26:28.318Z,6.40
2022-10-02T07:29:21.961Z,4.80
2022-10-02T07:32:12.286Z,4.80
2022-10-02T07:35:16.791Z,3.90
2022-10-02T07:37:55.686Z,6.00
2022-10-02T07:40:38.247Z,6.00
2022-10-02T07:43:39.163Z,5.00
2022-10-02T07:46:40.529Z,7.50
2022-10-02T07:49:29.575Z,6.00
2022-10-02T07:52:11.323Z,5.60
2022-10-02T07:54:45.552Z,7.20
2022-10-02T07:57:30.289Z,5.90
2022-10-02T08:00:03.244Z,5.70
2022-10-02T08:02:58.892Z,5.60
2022-10-02T08:05:36.220Z,5.00
2022-10-02T08:08:14.952Z,5.60
2022-10-02T08:10:47.914Z,5.90
2022-10-02T08:13:31.137Z,5.90
2022-10-02T08:15:58.615Z,5.70
2022-10-02T08:18:36.661Z,6.90
2022-10-02T08:21:15.043Z,5.40
2022-10-02T08:23:53.707Z,7.20
2022-10-02T08:26:24.564Z,5.00
2022-10-02T08:29:05.256Z,6.20
2022-10-02T08:31:33.738Z,5.80
2022-10-02T08:34:13.427Z,9.20
2022-10-02T08:36:59.281Z,7.80
2022-10-02T08:39:32.290Z,7.60
2022-10-02T08:42:21.532Z,6.30
2022-10-02T08:45:07.607Z,5.30
2022-10-02T08:48:22.806Z,5.90
2022-10-02T08:51:29.758Z,6.80
2022-10-02T08:54:28.823Z,5.90
2022-10-02T08:57:13.362Z,5.20
2022-10-02T08:59:41.104Z,5.30
2022-10-02T09:02:33.206Z,3.70
2022-10-02T09:59:58.309Z,3.50
2022-10-02T10:02:42.326Z,3.80
2022-10-02T10:05:25.694Z,2.80
2022-10-02T10:08:32.013Z,2.40
2022-10-02T10:11:10.042Z,1.80
2022-10-02T10:13:46.400Z,2.50
2022-10-02T10:16:41.420Z,4.00
2022-10-02T10:19:34.895Z,4.00
2022-10-02T10:22:23.780Z,5.60
2022-10-02T10:25:21.325Z,3.50
2022-10-02T10:28:06.097Z,7.20
2022-10-02T10:30:59.023Z,4.10
2022-10-02T10:33:48.575Z,3.70
2022-10-02T10:36:50.230Z,5.10
2022-10-02T10:39:30.237Z,4.70
2022-10-02T10:42:00.588Z,5.80
2022-10-02T10:44:55.459Z,6.60
2022-10-02T10:47:34.430Z,3.90
2022-10-02T10:50:10.769Z,5.60
2022-10-02T10:52:51.186Z,6.30
2022-10-02T10:55:40.232Z,3.00
2022-10-02T10:58:32.516Z,4.80
2022-10-02T11:01:10.445Z,4.40
2022-10-02T11:04:13.487Z,2.70
2022-10-02T11:06:50.100Z,2.80
2022-10-02T11:09:48.943Z,2.50
2022-10-02T11:12:33.087Z,2.90
2022-10-02T11:15:20.100Z,4.50
2022-10-02T11:18:00.894Z,4.30
2022-10-02T11:20:47.481Z,2.00
2022-10-02T11:23:40.550Z,3.10
2022-10-02T11:26:33.992Z,3.90
2022-10-02T11:29:17.299Z,3.20
2022-10-02T11:32:13.828Z,3.30
2022-10-02T11:35:06.304Z,3.70
2022-10-02T11:37:51.754Z,3.90
2022-10-02T11:40:34.425Z,2.90
2022-10-02T11:43:13.648Z,3.10
2022-10-02T11:46:04.285Z,2.60
2022-10-02T11:49:09.755Z,2.60
2022-10-02T11:51:48.072Z,3.90
2022-10-02T11:54:54.688Z,4.60
2022-10-02T11:57:56.728Z,4.60
2022-10-02T12:00:44.795Z,6.80
2022-10-02T12:03:22.644Z,3.50
2022-10-02T12:06:03.627Z,5.10
2022-10-02T12:08:56.103Z,2.90
2022-10-02T12:11:33.598Z,2.60
2022-10-02T12:14:42.344Z,2.40
2022-10-02T12:17:32.154Z,5.10
2022-10-02T12:20:57.534Z,4.00
2022-10-02T12:24:00.535Z,3.00
2022-10-02T12:26:59.379Z,3.50
2022-10-02T12:29:40.354Z,5.10
2022-10-02T12:32:14.754Z,3.10
2022-10-02T12:35:18.205Z,4.20
2022-10-02T12:38:09.966Z,8.30
2022-10-02T12:40:52.199Z,5.20
2022-10-02T12:43:42.338Z,4.20
2022-10-02T12:46:46.158Z,6.60
2022-10-02T12:49:27.982Z,8.70
2022-10-02T12:52:08.495Z,4.10
2022-10-02T12:55:07.629Z,4.50
2022-10-02T12:57:58.171Z,6.20
2022-10-02T13:01:04.941Z,5.60
2022-10-02T13:04:07.279Z,7.20
2022-10-02T13:06:53.084Z,4.20
2022-10-02T13:09:45.400Z,4.40
2022-10-02T13:12:35.147Z,4.90
2022-10-02T13:15:20.256Z,4.30
2022-10-02T13:17:58.250Z,4.30
2022-10-02T13:20:48.406Z,3.40
2022-10-02T13:23:27.072Z,4.30
2022-10-02T13:26:34.469Z,4.70
2022-10-02T13:29:36.878Z,6.50
2022-10-02T13:32:28.208Z,4.20
2022-10-02T13:34:57.787Z,3.50
2022-10-02T13:37:46.635Z,6.50
2022-10-02T13:40:27.894Z,6.30
2022-10-02T13:43:18.279Z,4.10
2022-10-02T13:46:05.967Z,4.40
2022-10-02T13:48:55.037Z,8.20
2022-10-02T13:52:05.167Z,5.80
2022-10-02T13:54:50.615Z,7.30
2022-10-02T13:57:24.476Z,5.30
2022-10-02T14:00:23.202Z,5.90
2022-10-02T14:03:00.731Z,6.40
2022-10-02T14:05:55.746Z,5.20
2022-10-02T14:08:44.185Z,5.00
2022-10-02T14:11:35.299Z,4.40
2022-10-02T14:14:21.157Z,4.50
2022-10-02T14:16:54.278Z,5.00
2022-10-02T14:19:34.102Z,8.00
2022-10-02T14:22:33.565Z,5.70
2022-10-02T14:25:25.976Z,5.00
2022-10-02T14:27:53.004Z,5.00
2022-10-02T14:30:38.196Z,3.40
2022-10-02T14:33:20.267Z,7.10
2022-10-02T14:35:53.764Z,5.70
2022-10-02T14:38:39.331Z,6.00
2022-10-02T14:41:14.545Z,5.90
2022-10-02T14:44:15.868Z,7.70
2022-10-02T14:47:15.293Z,10.10
2022-10-02T14:49:59.196Z,9.30
2022-10-02T14:52:41.719Z,11.20
2022-10-02T14:55:20.078Z,10.50
2022-10-02T14:58:34.560Z,9.40
2022-10-02T15:01:16.934Z,7.80
2022-10-02T15:04:15.696Z,6.00
2022-10-02T15:07:09.224Z,6.40
2022-10-02T15:09:39.935Z,4.70
2022-10-02T15:12:35.511Z,5.60
2022-10-02T15:15:10.133Z,5.40
2022-10-02T15:18:12.118Z,6.50
2022-10-02T15:20:58.910Z,5.50
2022-10-02T15:24:03.392Z,6.60
2022-10-02T15:26:51.272Z,6.30
2022-10-02T15:29:20.639Z,7.20
2022-10-02T15:32:17.979Z,6.80
2022-10-02T15:35:18.916Z,7.10
2022-10-02T15:38:23.425Z,6.50
2022-10-02T15:41:13.491Z,11.30
2022-10-02T15:44:19.872Z,9.70
2022-10-02T15:47:06.126Z,9.10
2022-10-02T15:49:48.275Z,9.60
2022-10-02T15:52:33.755Z,8.70
2022-10-02T15:55:21.877Z,11.80
2022-10-02T15:57:55.178Z,10.80
2022-10-02T16:00:23.526Z,11.10
2022-10-02T16:03:31.325Z,19.00
2022-10-02T16:06:16.190Z,9.40
2022-10-02T16:12:00.840Z,11.70
2022-10-02T16:14:59.911Z,10.50
2022-10-02T16:17:44.799Z,13.00
2022-10-02T16:20:36.585Z,11.90
2022-10-02T16:23:24.754Z,14.30
2022-10-02T16:25:57.891Z,16.60
2022-10-02T16:28:36.164Z,10.70
2022-10-02T16:31:10.233Z,8.30
2022-10-02T16:33:47.254Z,9.80
2022-10-02T16:36:37.583Z,12.30
2022-10-02T16:39:23.539Z,10.50
2022-10-02T16:42:04.156Z,8.80
2022-10-02T16:44:56.617Z,9.50
2022-10-02T16:47:43.022Z,6.60
2022-10-02T16:50:19.524Z,11.70
2022-10-02T16:53:08.033Z,11.00
2022-10-02T16:55:57.066Z,10.30
2022-10-02T16:58:26.670Z,12.00
2022-10-02T17:01:06.746Z,10.20
2022-10-02T17:03:45.928Z,7.10
2022-10-02T17:06:26.087Z,10.80
2022-10-02T17:09:05.704Z,8.60
2022-10-02T17:11:45.846Z,11.60
2022-10-02T17:14:27.663Z,10.70
2022-10-02T17:17:02.022Z,8.80
2022-10-02T17:20:03.479Z,7.10
2022-10-02T17:22:51.164Z,4.70
2022-10-02T17:25:41.932Z,5.80
2022-10-02T17:28:36.375Z,9.50
2022-10-02T17:31:05.361Z,8.00
2022-10-02T17:33:56.272Z,9.10
2022-10-02T17:36:55.895Z,7.00
2022-10-02T17:39:35.129Z,9.10
2022-10-02T17:42:13.729Z,8.60
2022-10-02T17:44:55.817Z,8.50
2022-10-02T17:47:37.616Z,10.60
2022-10-02T17:50:24.579Z,8.00
2022-10-02T17:53:28.825Z,9.90
2022-10-02T17:56:20.390Z,11.20
2022-10-02T17:59:06.606Z,11.80
2022-10-02T18:01:45.445Z,8.70
2022-10-02T18:04:48.466Z,8.90
2022-10-02T18:07:38.367Z,12.00
2022-10-02T18:10:17.067Z,9.60
2022-10-02T18:12:43.863Z,11.90
2022-10-02T18:15:39.800Z,20.30
2022-10-02T18:18:23.753Z,21.40
2022-10-02T18:21:32.356Z,20.50
2022-10-02T18:24:08.355Z,16.50
2022-10-02T18:26:52.235Z,14.10
2022-10-02T18:29:27.806Z,15.70
2022-10-02T18:32:34.243Z,15.60
2022-10-02T18:35:21.697Z,14.30
2022-10-02T18:38:01.680Z,15.60
2022-10-02T18:40:47.914Z,17.50
2022-10-02T18:43:47.516Z,15.80
2022-10-02T18:46:29.365Z,16.30
2022-10-02T18:49:08.276Z,14.80
2022-10-02T18:51:58.220Z,13.90
2022-10-02T18:54:39.594Z,17.80
2022-10-02T18:57:41.002Z,18.30
2022-10-02T19:00:20.896Z,18.30
2022-10-02T19:03:02.962Z,14.70
2022-10-02T19:05:34.978Z,12.30
2022-10-02T19:08:04.817Z,11.20
2022-10-02T19:10:31.753Z,12.30
2022-10-02T19:13:21.843Z,12.90
2022-10-02T19:15:51.827Z,12.70
2022-10-02T19:18:23.151Z,14.40
2022-10-02T19:21:16.943Z,14.00
2022-10-02T19:24:02.715Z,12.50
2022-10-02T19:26:33.973Z,17.30
2022-10-02T19:29:19.257Z,14.90
2022-10-02T19:31:46.298Z,14.30
2022-10-02T19:34:24.067Z,13.20
2022-10-02T19:36:56.557Z,12.20
2022-10-02T19:39:52.415Z,10.10
2022-10-02T19:42:24.575Z,9.10
2022-10-02T19:45:25.415Z,9.30
2022-10-02T19:47:59.764Z,10.10
2022-10-02T19:50:39.862Z,12.00
2022-10-02T19:53:22.979Z,12.20
2022-10-02T19:55:56.355Z,10.00
2022-10-02T19:58:28.834Z,11.10
2022-10-02T20:00:56.210Z,9.40
2022-10-02T20:03:25.075Z,7.70
2022-10-02T20:05:57.722Z,8.60
2022-10-02T20:08:44.637Z,9.10
2022-10-02T20:11:26.374Z,8.10
2022-10-02T20:14:18.194Z,7.30
2022-10-02T20:17:03.476Z,9.10
2022-10-02T20:19:35.690Z,10.00
2022-10-02T20:22:28.733Z,10.50
2022-10-02T20:24:58.051Z,7.00
2022-10-02T20:27:58.927Z,7.60
2022-10-02T20:30:34.851Z,7.20
2022-10-02T20:33:09.077Z,6.40
2022-10-02T20:38:16.877Z,8.00
2022-10-02T20:40:52.689Z,7.30
2022-10-02T20:43:31.615Z,8.80
2022-10-02T20:46:01.578Z,6.10
2022-10-02T20:49:07.377Z,7.70
2022-10-02T20:52:06.201Z,9.30
2022-10-02T20:54:44.860Z,9.00
2022-10-02T20:58:00.118Z,8.70
2022-10-02T21:00:54.295Z,7.90
2022-10-02T21:03:59.242Z,8.50
2022-10-02T21:06:45.816Z,8.70
2022-10-02T21:09:50.044Z,6.90
2022-10-02T21:12:35.443Z,8.90
2022-10-02T21:15:35.274Z,8.20
2022-10-02T21:18:10.596Z,7.40
2022-10-02T21:20:51.924Z,7.30
2022-10-02T21:23:38.548Z,7.80
2022-10-02T21:26:26.495Z,6.90
2022-10-02T21:29:12.127Z,8.90
2022-10-02T21:32:15.368Z,7.30
2022-10-02T21:35:08.723Z,6.70
2022-10-02T21:37:54.038Z,5.90
2022-10-02T21:40:41.621Z,5.90
2022-10-02T21:43:32.762Z,6.00
2022-10-02T21:46:15.071Z,5.80
2022-10-02T21:48:51.039Z,7.50
2022-10-02T21:52:08.783Z,4.50
2022-10-02T21:55:00.324Z,6.10
2022-10-02T21:57:39.576Z,5.40
2022-10-02T22:00:15.531Z,7.20
2022-10-02T22:02:45.238Z,5.40
2022-10-02T22:05:50.112Z,7.70
2022-10-02T22:08:36.183Z,7.10
2022-10-02T22:11:30.611Z,5.00
2022-10-02T22:14:05.912Z,4.40
2022-10-02T22:16:36.712Z,7.50
2022-10-02T22:19:29.889Z,4.20
2022-10-02T22:22:54.354Z,4.80
2022-10-02T22:25:39.573Z,6.30
2022-10-02T22:28:20.748Z,5.40
2022-10-02T22:30:47.611Z,4.90
2022-10-02T22:33:26.146Z,4.70
2022-10-02T22:36:04.982Z,5.20
2022-10-02T22:38:35.111Z,5.40
2022-10-02T22:41:23.713Z,4.20
2022-10-02T22:43:58.959Z,5.20
2022-10-02T22:46:29.183Z,5.10
2022-10-02T22:49:17.812Z,7.10
2022-10-02T22:51:59.233Z,7.50
2022-10-02T22:54:33.254Z,6.50
2022-10-02T22:57:06.599Z,6.20
2022-10-02T22:59:53.441Z,6.30
2022-10-02T23:02:54.211Z,7.20
2022-10-02T23:05:38.530Z,6.50
2022-10-02T23:08:20.884Z,5.70
2022-10-02T23:10:54.798Z,7.10
2022-10-02T23:13:32.926Z,6.10
2022-10-02T23:16:07.638Z,5.90
2022-10-02T23:18:50.397Z,6.70
2022-10-02T23:21:22.913Z,9.10
2022-10-02T23:24:07.976Z,6.80
2022-10-02T23:26:53.043Z,7.90
2022-10-02T23:29:44.362Z,5.80
2022-10-02T23:32:16.817Z,8.80
2022-10-02T23:35:02.354Z,6.80
2022-10-02T23:37:32.223Z,8.20
2022-10-02T23:40:05.018Z,7.60
2022-10-02T23:42:38.789Z,6.80
2022-10-02T23:45:39.512Z,7.10
2022-10-02T23:48:14.157Z,4.50
2022-10-02T23:50:49.214Z,7.20
2022-10-02T23:53:58.698Z,4.40
2022-10-02T23:56:40.583Z,5.80
2022-10-02T23:59:30.338Z,5.60
